sensor_id;sensor_type;location;lat;lon;timestamp;pressure;altitude;pressure_sealevel;temperature;humidity
70217;BME280;65567;55.684;37.570;2024-02-26T00:01:42;100225.41;;;1.68;47.73
70217;BME280;65567;55.684;37.570;2024-02-26T00:04:09;100228.00;;;1.79;47.73
70217;BME280;65567;55.684;37.570;2024-02-26T00:06:35;100219.41;;;1.86;47.52
70217;BME280;65567;55.684;37.570;2024-02-26T00:09:02;100227.16;;;1.89;47.38
70217;BME280;65567;55.684;37.570;2024-02-26T00:11:31;100231.47;;;1.81;47.54
70217;BME280;65567;55.684;37.570;2024-02-26T00:13:57;100231.47;;;2.15;47.03
70217;BME280;65567;55.684;37.570;2024-02-26T00:16:23;100238.34;;;1.88;47.33
70217;BME280;65567;55.684;37.570;2024-02-26T00:18:49;100216.81;;;1.80;47.52
70217;BME280;65567;55.684;37.570;2024-02-26T00:21:15;100220.28;;;2.01;47.37
70217;BME280;65567;55.684;37.570;2024-02-26T00:23:41;100226.31;;;2.15;46.85
70217;BME280;65567;55.684;37.570;2024-02-26T00:26:06;100228.91;;;2.04;46.94
70217;BME280;65567;55.684;37.570;2024-02-26T00:28:33;100230.59;;;2.07;47.02
70217;BME280;65567;55.684;37.570;2024-02-26T00:30:59;100231.47;;;2.09;47.23
70217;BME280;65567;55.684;37.570;2024-02-26T00:33:25;100220.22;;;2.53;46.14
70217;BME280;65567;55.684;37.570;2024-02-26T00:35:51;100222.78;;;2.69;45.67
70217;BME280;65567;55.684;37.570;2024-02-26T00:38:17;100220.25;;;2.48;46.12
70217;BME280;65567;55.684;37.570;2024-02-26T00:40:42;100224.56;;;1.92;46.86
70217;BME280;65567;55.684;37.570;2024-02-26T00:43:08;100224.59;;;2.26;46.59
70217;BME280;65567;55.684;37.570;2024-02-26T00:45:34;100210.72;;;2.58;45.60
70217;BME280;65567;55.684;37.570;2024-02-26T00:48:00;100215.91;;;2.52;46.00
70217;BME280;65567;55.684;37.570;2024-02-26T00:50:33;100222.00;;;2.02;46.63
70217;BME280;65567;55.684;37.570;2024-02-26T00:52:59;100231.47;;;1.89;46.88
70217;BME280;65567;55.684;37.570;2024-02-26T00:55:25;100212.50;;;1.94;46.88
70217;BME280;65567;55.684;37.570;2024-02-26T00:57:51;100215.06;;;1.82;47.12
70217;BME280;65567;55.684;37.570;2024-02-26T01:00:17;100209.91;;;1.70;47.12
70217;BME280;65567;55.684;37.570;2024-02-26T01:02:43;100198.69;;;1.68;47.25
70217;BME280;65567;55.684;37.570;2024-02-26T01:05:09;100199.59;;;1.90;46.82
70217;BME280;65567;55.684;37.570;2024-02-26T01:07:35;100209.03;;;1.77;47.15
70217;BME280;65567;55.684;37.570;2024-02-26T01:10:02;100215.94;;;1.79;47.16
70217;BME280;65567;55.684;37.570;2024-02-26T01:12:34;100214.22;;;1.78;47.15
70217;BME280;65567;55.684;37.570;2024-02-26T01:15:04;100213.38;;;1.90;47.23
70217;BME280;65567;55.684;37.570;2024-02-26T01:17:30;100209.94;;;1.99;46.52
70217;BME280;65567;55.684;37.570;2024-02-26T01:19:56;100212.50;;;1.82;47.09
70217;BME280;65567;55.684;37.570;2024-02-26T01:22:22;100209.06;;;2.23;46.35
70217;BME280;65567;55.684;37.570;2024-02-26T01:24:48;100205.63;;;1.75;47.13
70217;BME280;65567;55.684;37.570;2024-02-26T01:27:14;100204.75;;;1.80;47.03
70217;BME280;65567;55.684;37.570;2024-02-26T01:29:41;100206.47;;;1.78;46.85
70217;BME280;65567;55.684;37.570;2024-02-26T01:32:07;100216.81;;;1.69;47.15
70217;BME280;65567;55.684;37.570;2024-02-26T01:34:33;100210.75;;;1.53;47.19
70217;BME280;65567;55.684;37.570;2024-02-26T01:36:59;100210.78;;;1.75;47.37
70217;BME280;65567;55.684;37.570;2024-02-26T01:39:26;100199.56;;;1.59;46.99
70217;BME280;65567;55.684;37.570;2024-02-26T01:41:54;100208.19;;;1.75;47.09
70217;BME280;65567;55.684;37.570;2024-02-26T01:44:20;100204.75;;;1.97;46.41
70217;BME280;65567;55.684;37.570;2024-02-26T01:46:47;100198.69;;;1.55;46.91
70217;BME280;65567;55.684;37.570;2024-02-26T01:49:13;100204.75;;;1.68;47.01
70217;BME280;65567;55.684;37.570;2024-02-26T01:51:41;100207.31;;;1.80;46.50
70217;BME280;65567;55.684;37.570;2024-02-26T01:54:08;100203.88;;;1.83;46.73
70217;BME280;65567;55.684;37.570;2024-02-26T01:56:35;100196.97;;;2.28;45.65
70217;BME280;65567;55.684;37.570;2024-02-26T01:59:02;100187.53;;;1.65;46.50
70217;BME280;65567;55.684;37.570;2024-02-26T02:01:30;100191.84;;;1.94;46.20
70217;BME280;65567;55.684;37.570;2024-02-26T02:03:59;100195.28;;;2.12;46.11
70217;BME280;65567;55.684;37.570;2024-02-26T02:06:25;100191.81;;;2.22;45.70
70217;BME280;65567;55.684;37.570;2024-02-26T02:08:52;100193.53;;;2.17;45.71
70217;BME280;65567;55.684;37.570;2024-02-26T02:11:19;100179.78;;;1.81;46.40
70217;BME280;65567;55.684;37.570;2024-02-26T02:13:48;100194.44;;;1.87;46.36
70217;BME280;65567;55.684;37.570;2024-02-26T02:16:14;100190.13;;;1.81;46.37
70217;BME280;65567;55.684;37.570;2024-02-26T02:18:39;100195.28;;;1.95;46.04
70217;BME280;65567;55.684;37.570;2024-02-26T02:21:05;100183.22;;;2.14;45.68
70217;BME280;65567;55.684;37.570;2024-02-26T02:23:31;100195.28;;;2.03;45.69
70217;BME280;65567;55.684;37.570;2024-02-26T02:25:57;100197.00;;;1.70;46.47
70217;BME280;65567;55.684;37.570;2024-02-26T02:28:25;100190.09;;;1.76;46.18
70217;BME280;65567;55.684;37.570;2024-02-26T02:30:51;100193.53;;;1.49;46.72
70217;BME280;65567;55.684;37.570;2024-02-26T02:33:17;100186.69;;;1.94;45.86
70217;BME280;65567;55.684;37.570;2024-02-26T02:35:43;100185.81;;;1.72;46.25
70217;BME280;65567;55.684;37.570;2024-02-26T02:38:09;100180.59;;;1.49;46.37
70217;BME280;65567;55.684;37.570;2024-02-26T02:40:35;100187.50;;;1.48;46.34
70217;BME280;65567;55.684;37.570;2024-02-26T02:43:00;100184.09;;;1.80;46.07
70217;BME280;65567;55.684;37.570;2024-02-26T02:45:30;100174.59;;;1.62;46.09
70217;BME280;65567;55.684;37.570;2024-02-26T02:47:57;100183.22;;;1.71;46.14
70217;BME280;65567;55.684;37.570;2024-02-26T02:50:22;100190.13;;;1.81;46.20
70217;BME280;65567;55.684;37.570;2024-02-26T02:52:48;100184.94;;;1.75;46.06
70217;BME280;65567;55.684;37.570;2024-02-26T02:55:16;100177.19;;;2.07;45.57
70217;BME280;65567;55.684;37.570;2024-02-26T02:57:41;100187.53;;;1.81;45.78
70217;BME280;65567;55.684;37.570;2024-02-26T03:00:09;100182.38;;;1.84;45.94
70217;BME280;65567;55.684;37.570;2024-02-26T03:02:35;100188.38;;;1.64;46.22
70217;BME280;65567;55.684;37.570;2024-02-26T03:05:04;100182.38;;;1.93;45.87
70217;BME280;65567;55.684;37.570;2024-02-26T03:07:31;100181.50;;;1.80;46.03
70217;BME280;65567;55.684;37.570;2024-02-26T03:09:57;100175.47;;;1.88;45.82
70217;BME280;65567;55.684;37.570;2024-02-26T03:12:23;100182.38;;;1.89;45.92
70217;BME280;65567;55.684;37.570;2024-02-26T03:14:49;100177.16;;;1.55;46.30
70217;BME280;65567;55.684;37.570;2024-02-26T03:17:15;100182.34;;;1.53;46.63
70217;BME280;65567;55.684;37.570;2024-02-26T03:19:41;100180.66;;;1.69;46.42
70217;BME280;65567;55.684;37.570;2024-02-26T03:22:07;100185.81;;;1.74;46.05
70217;BME280;65567;55.684;37.570;2024-02-26T03:24:32;100172.91;;;1.86;45.92
70217;BME280;65567;55.684;37.570;2024-02-26T03:26:58;100184.00;;;1.31;46.46
70217;BME280;65567;55.684;37.570;2024-02-26T03:29:24;100172.78;;;1.18;47.09
70217;BME280;65567;55.684;37.570;2024-02-26T03:31:50;100179.69;;;1.14;47.07
70217;BME280;65567;55.684;37.570;2024-02-26T03:34:16;100171.19;;;1.67;46.38
70217;BME280;65567;55.684;37.570;2024-02-26T03:36:42;100167.72;;;1.81;45.90
70217;BME280;65567;55.684;37.570;2024-02-26T03:39:09;100168.56;;;1.46;46.45
70217;BME280;65567;55.684;37.570;2024-02-26T03:41:35;100178.81;;;1.25;47.02
70217;BME280;65567;55.684;37.570;2024-02-26T03:44:02;100170.31;;;1.55;46.67
70217;BME280;65567;55.684;37.570;2024-02-26T03:46:28;100163.38;;;1.37;46.85
70217;BME280;65567;55.684;37.570;2024-02-26T03:48:54;100171.16;;;1.63;46.25
70217;BME280;65567;55.684;37.570;2024-02-26T03:51:20;100154.78;;;1.60;46.20
70217;BME280;65567;55.684;37.570;2024-02-26T03:53:46;100174.59;;;1.67;45.95
70217;BME280;65567;55.684;37.570;2024-02-26T03:56:12;100173.72;;;1.45;46.48
70217;BME280;65567;55.684;37.570;2024-02-26T03:58:41;100169.47;;;1.81;45.92
70217;BME280;65567;55.684;37.570;2024-02-26T04:01:08;100176.22;;;1.14;46.87
70217;BME280;65567;55.684;37.570;2024-02-26T04:03:34;100175.41;;;1.21;46.95
70217;BME280;65567;55.684;37.570;2024-02-26T04:06:01;100184.84;;;1.19;47.13
70217;BME280;65567;55.684;37.570;2024-02-26T04:08:28;100184.84;;;1.19;47.40
70217;BME280;65567;55.684;37.570;2024-02-26T04:10:53;100175.31;;;0.98;47.69
70217;BME280;65567;55.684;37.570;2024-02-26T04:13:19;100181.28;;;0.92;47.68
70217;BME280;65567;55.684;37.570;2024-02-26T04:15:45;100159.03;;;1.16;47.34
70217;BME280;65567;55.684;37.570;2024-02-26T04:18:12;100183.13;;;1.15;47.66
70217;BME280;65567;55.684;37.570;2024-02-26T04:20:39;100183.19;;;1.40;46.79
70217;BME280;65567;55.684;37.570;2024-02-26T04:23:07;100183.97;;;1.12;47.45
70217;BME280;65567;55.684;37.570;2024-02-26T04:25:33;100189.13;;;1.09;47.74
70217;BME280;65567;55.684;37.570;2024-02-26T04:27:58;100182.25;;;1.16;47.67
70217;BME280;65567;55.684;37.570;2024-02-26T04:30:24;100176.13;;;0.92;47.89
70217;BME280;65567;55.684;37.570;2024-02-26T04:32:50;100182.16;;;0.87;48.45
70217;BME280;65567;55.684;37.570;2024-02-26T04:35:16;100186.53;;;1.12;47.93
70217;BME280;65567;55.684;37.570;2024-02-26T04:37:42;100184.00;;;1.32;47.54
70217;BME280;65567;55.684;37.570;2024-02-26T04:40:07;100184.81;;;1.08;47.97
70217;BME280;65567;55.684;37.570;2024-02-26T04:42:33;100182.97;;;0.78;48.75
70217;BME280;65567;55.684;37.570;2024-02-26T04:44:59;100190.72;;;0.81;49.20
70217;BME280;65567;55.684;37.570;2024-02-26T04:47:25;100193.31;;;0.81;49.14
70217;BME280;65567;55.684;37.570;2024-02-26T04:49:51;100168.47;;;1.03;48.54
70217;BME280;65567;55.684;37.570;2024-02-26T04:52:18;100175.38;;;1.27;48.26
70217;BME280;65567;55.684;37.570;2024-02-26T04:54:44;100179.69;;;1.22;47.88
70217;BME280;65567;55.684;37.570;2024-02-26T04:57:10;100181.28;;;0.92;49.12
70217;BME280;65567;55.684;37.570;2024-02-26T04:59:35;100173.38;;;0.46;50.44
70217;BME280;65567;55.684;37.570;2024-02-26T05:02:07;100177.69;;;0.48;50.35
70217;BME280;65567;55.684;37.570;2024-02-26T05:04:36;100182.88;;;0.59;50.41
70217;BME280;65567;55.684;37.570;2024-02-26T05:07:14;100182.97;;;0.75;50.16
70217;BME280;65567;55.684;37.570;2024-02-26T05:09:49;100153.84;;;1.10;49.06
70217;BME280;65567;55.684;37.570;2024-02-26T05:12:36;100162.28;;;0.69;49.97
70217;BME280;65567;55.684;37.570;2024-02-26T05:15:31;100177.75;;;0.65;50.49
70217;BME280;65567;55.684;37.570;2024-02-26T05:21:23;100177.97;;;1.21;49.27
70217;BME280;65567;55.684;37.570;2024-02-26T05:23:49;100172.84;;;1.37;48.59
70217;BME280;65567;55.684;37.570;2024-02-26T05:26:24;100150.47;;;1.40;48.51
70217;BME280;65567;55.684;37.570;2024-02-26T05:28:57;100177.91;;;0.99;49.79
70217;BME280;65567;55.684;37.570;2024-02-26T05:31:53;100153.00;;;1.15;49.11
70217;BME280;65567;55.684;37.570;2024-02-26T05:34:25;100159.94;;;1.29;49.05
70217;BME280;65567;55.684;37.570;2024-02-26T05:36:54;100172.03;;;1.69;48.17
70217;BME280;65567;55.684;37.570;2024-02-26T05:39:33;100160.84;;;1.67;48.04
70217;BME280;65567;55.684;37.570;2024-02-26T05:42:04;100162.56;;;1.86;47.95
70217;BME280;65567;55.684;37.570;2024-02-26T05:44:52;100178.03;;;2.08;46.90
70217;BME280;65567;55.684;37.570;2024-02-26T05:47:18;100164.28;;;2.03;47.13
70217;BME280;65567;55.684;37.570;2024-02-26T05:49:43;100154.81;;;1.71;47.91
70217;BME280;65567;55.684;37.570;2024-02-26T05:52:09;100162.50;;;1.30;48.91
70217;BME280;65567;55.684;37.570;2024-02-26T05:54:35;100166.84;;;1.55;48.71
70217;BME280;65567;55.684;37.570;2024-02-26T05:57:01;100170.25;;;1.29;49.51
70217;BME280;65567;55.684;37.570;2024-02-26T05:59:27;100192.59;;;1.19;49.78
70217;BME280;65567;55.684;37.570;2024-02-26T06:01:53;100178.03;;;1.37;49.66
70217;BME280;65567;55.684;37.570;2024-02-26T06:04:19;100178.06;;;1.61;48.70
70217;BME280;65567;55.684;37.570;2024-02-26T06:06:44;100182.34;;;1.70;48.70
70217;BME280;65567;55.684;37.570;2024-02-26T06:09:13;100187.50;;;1.41;49.43
70217;BME280;65567;55.684;37.570;2024-02-26T06:11:39;100180.63;;;1.57;49.07
70217;BME280;65567;55.684;37.570;2024-02-26T06:14:04;100187.50;;;2.12;47.72
70217;BME280;65567;55.684;37.570;2024-02-26T06:16:30;100183.22;;;2.11;47.76
70217;BME280;65567;55.684;37.570;2024-02-26T06:18:56;100181.50;;;1.88;48.14
70217;BME280;65567;55.684;37.570;2024-02-26T06:21:22;100181.53;;;1.74;48.39
70217;BME280;65567;55.684;37.570;2024-02-26T06:23:47;100182.38;;;1.86;48.48
70217;BME280;65567;55.684;37.570;2024-02-26T06:26:13;100186.69;;;2.01;48.36
70217;BME280;65567;55.684;37.570;2024-02-26T06:28:39;100173.69;;;2.48;46.81
70217;BME280;65567;55.684;37.570;2024-02-26T06:31:06;100181.34;;;2.78;46.04
70217;BME280;65567;55.684;37.570;2024-02-26T06:33:32;100172.91;;;2.11;47.86
70217;BME280;65567;55.684;37.570;2024-02-26T06:35:57;100171.16;;;2.13;47.54
70217;BME280;65567;55.684;37.570;2024-02-26T06:38:23;100176.34;;;2.16;47.65
70217;BME280;65567;55.684;37.570;2024-02-26T06:40:49;100167.72;;;1.92;48.14
70217;BME280;65567;55.684;37.570;2024-02-26T06:43:14;100172.88;;;1.98;48.27
70217;BME280;65567;55.684;37.570;2024-02-26T06:45:40;100180.59;;;2.43;47.23
70217;BME280;65567;55.684;37.570;2024-02-26T06:48:06;100185.78;;;2.37;47.18
70217;BME280;65567;55.684;37.570;2024-02-26T06:50:32;100178.06;;;1.80;48.45
70217;BME280;65567;55.684;37.570;2024-02-26T06:52:58;100183.22;;;2.11;48.20
70217;BME280;65567;55.684;37.570;2024-02-26T06:55:23;100188.28;;;2.63;46.63
70217;BME280;65567;55.684;37.570;2024-02-26T06:57:50;100181.47;;;2.35;47.25
70217;BME280;65567;55.684;37.570;2024-02-26T07:00:16;100179.75;;;2.30;47.71
70217;BME280;65567;55.684;37.570;2024-02-26T07:02:43;100182.22;;;2.81;46.60
70217;BME280;65567;55.684;37.570;2024-02-26T07:05:09;100178.00;;;2.51;46.77
70217;BME280;65567;55.684;37.570;2024-02-26T07:07:35;100174.56;;;2.38;47.56
70217;BME280;65567;55.684;37.570;2024-02-26T07:10:01;100176.13;;;2.90;46.01
70217;BME280;65567;55.684;37.570;2024-02-26T07:12:30;100174.47;;;2.72;46.71
70217;BME280;65567;55.684;37.570;2024-02-26T07:14:55;100173.75;;;2.24;47.83
70217;BME280;65567;55.684;37.570;2024-02-26T07:17:21;100164.25;;;2.24;48.02
70217;BME280;65567;55.684;37.570;2024-02-26T07:19:47;100163.22;;;2.89;46.74
70217;BME280;65567;55.684;37.570;2024-02-26T07:22:13;100159.81;;;2.67;46.73
70217;BME280;65567;55.684;37.570;2024-02-26T07:24:39;100155.56;;;2.47;47.82
70217;BME280;65567;55.684;37.570;2024-02-26T07:27:04;100172.81;;;2.60;47.80
70217;BME280;65567;55.684;37.570;2024-02-26T07:29:30;100153.84;;;2.49;47.87
70217;BME280;65567;55.684;37.570;2024-02-26T07:31:56;100170.19;;;2.65;47.89
70217;BME280;65567;55.684;37.570;2024-02-26T07:34:22;100163.25;;;2.81;47.45
70217;BME280;65567;55.684;37.570;2024-02-26T07:36:53;100160.56;;;3.01;47.15
70217;BME280;65567;55.684;37.570;2024-02-26T07:39:19;100167.16;;;3.53;46.18
70217;BME280;65567;55.684;37.570;2024-02-26T07:41:45;100164.63;;;3.44;45.93
70217;BME280;65567;55.684;37.570;2024-02-26T07:44:13;100183.50;;;3.61;45.88
70217;BME280;65567;55.684;37.570;2024-02-26T07:46:39;100167.31;;;3.28;46.60
70217;BME280;65567;55.684;37.570;2024-02-26T07:49:08;100166.81;;;3.96;45.48
70217;BME280;65567;55.684;37.570;2024-02-26T07:51:33;100181.47;;;4.04;45.24
70217;BME280;65567;55.684;37.570;2024-02-26T07:54:00;100157.28;;;4.00;45.22
70217;BME280;65567;55.684;37.570;2024-02-26T07:56:27;100177.75;;;4.31;45.07
70217;BME280;65567;55.684;37.570;2024-02-26T07:58:52;100159.84;;;4.05;44.53
70217;BME280;65567;55.684;37.570;2024-02-26T08:01:18;100165.00;;;4.08;44.85
70217;BME280;65567;55.684;37.570;2024-02-26T08:03:44;100165.38;;;4.58;44.19
70217;BME280;65567;55.684;37.570;2024-02-26T08:06:10;100175.28;;;4.96;43.87
70217;BME280;65567;55.684;37.570;2024-02-26T08:08:35;100148.31;;;5.10;43.46
70217;BME280;65567;55.684;37.570;2024-02-26T08:11:01;100161.31;;;5.68;42.55
70217;BME280;65567;55.684;37.570;2024-02-26T08:13:30;100179.47;;;5.10;42.71
70217;BME280;65567;55.684;37.570;2024-02-26T08:15:56;100167.19;;;5.23;43.20
70217;BME280;65567;55.684;37.570;2024-02-26T08:18:22;100162.19;;;5.07;42.85
70217;BME280;65567;55.684;37.570;2024-02-26T08:20:47;100150.41;;;4.80;43.61
70217;BME280;65567;55.684;37.570;2024-02-26T08:23:14;100160.69;;;5.53;42.87
70217;BME280;65567;55.684;37.570;2024-02-26T08:25:40;100160.72;;;5.52;42.53
70217;BME280;65567;55.684;37.570;2024-02-26T08:28:05;100142.94;;;5.22;43.05
70217;BME280;65567;55.684;37.570;2024-02-26T08:30:31;100139.84;;;4.94;43.24
70217;BME280;65567;55.684;37.570;2024-02-26T08:32:57;100147.97;;;5.35;43.02
70217;BME280;65567;55.684;37.570;2024-02-26T08:35:23;100156.41;;;5.49;42.36
70217;BME280;65567;55.684;37.570;2024-02-26T08:37:49;100147.31;;;5.20;42.80
70217;BME280;65567;55.684;37.570;2024-02-26T08:40:15;100147.69;;;5.53;42.64
70217;BME280;65567;55.684;37.570;2024-02-26T08:42:40;100119.19;;;5.47;42.42
70217;BME280;65567;55.684;37.570;2024-02-26T08:45:08;100127.47;;;5.71;41.68
70217;BME280;65567;55.684;37.570;2024-02-26T08:47:33;100132.38;;;5.88;41.96
70217;BME280;65567;55.684;37.570;2024-02-26T08:49:59;100135.69;;;5.98;41.77
70217;BME280;65567;55.684;37.570;2024-02-26T08:52:25;100116.41;;;5.59;42.38
70217;BME280;65567;55.684;37.570;2024-02-26T08:54:51;100122.91;;;5.85;42.43
70217;BME280;65567;55.684;37.570;2024-02-26T08:57:17;100131.31;;;6.03;42.00
70217;BME280;65567;55.684;37.570;2024-02-26T08:59:43;100132.16;;;6.03;41.88
70217;BME280;65567;55.684;37.570;2024-02-26T09:02:09;100128.97;;;6.36;41.62
70217;BME280;65567;55.684;37.570;2024-02-26T09:04:35;100128.19;;;6.31;41.85
70217;BME280;65567;55.684;37.570;2024-02-26T09:07:01;100118.84;;;6.66;41.82
70217;BME280;65567;55.684;37.570;2024-02-26T09:09:27;100140.13;;;6.86;41.13
70217;BME280;65567;55.684;37.570;2024-02-26T09:11:53;100132.59;;;6.74;41.20
70217;BME280;65567;55.684;37.570;2024-02-26T09:14:21;100133.75;;;6.57;41.86
70217;BME280;65567;55.684;37.570;2024-02-26T09:16:50;100128.25;;;6.73;41.31
70217;BME280;65567;55.684;37.570;2024-02-26T09:19:16;100129.91;;;6.77;41.18
70217;BME280;65567;55.684;37.570;2024-02-26T09:21:52;100142.03;;;6.78;40.78
70217;BME280;65567;55.684;37.570;2024-02-26T09:24:30;100122.25;;;6.69;41.60
70217;BME280;65567;55.684;37.570;2024-02-26T09:26:56;100127.13;;;6.42;41.53
70217;BME280;65567;55.684;37.570;2024-02-26T09:29:22;100126.41;;;6.34;41.97
70217;BME280;65567;55.684;37.570;2024-02-26T09:31:47;100142.16;;;6.26;42.37
70217;BME280;65567;55.684;37.570;2024-02-26T09:34:13;100127.50;;;6.22;42.21
70217;BME280;65567;55.684;37.570;2024-02-26T09:36:40;100129.31;;;6.17;42.41
70217;BME280;65567;55.684;37.570;2024-02-26T09:39:08;100121.53;;;6.16;43.04
70217;BME280;65567;55.684;37.570;2024-02-26T09:41:37;100125.91;;;6.15;42.95
70217;BME280;65567;55.684;37.570;2024-02-26T09:44:07;100119.56;;;6.28;42.51
70217;BME280;65567;55.684;37.570;2024-02-26T09:46:38;100129.84;;;6.36;42.51
70217;BME280;65567;55.684;37.570;2024-02-26T09:49:04;100121.94;;;6.42;42.95
70217;BME280;65567;55.684;37.570;2024-02-26T09:51:33;100137.06;;;6.22;43.01
70217;BME280;65567;55.684;37.570;2024-02-26T09:54:02;100101.72;;;6.10;42.60
70217;BME280;65567;55.684;37.570;2024-02-26T09:56:33;100102.72;;;6.01;43.49
70217;BME280;65567;55.684;37.570;2024-02-26T09:59:18;100135.09;;;6.35;44.58
70217;BME280;65567;55.684;37.570;2024-02-26T10:01:44;100128.69;;;6.51;43.28
70217;BME280;65567;55.684;37.570;2024-02-26T10:04:12;100127.13;;;6.41;43.77
70217;BME280;65567;55.684;37.570;2024-02-26T10:06:39;100118.97;;;6.14;44.32
70217;BME280;65567;55.684;37.570;2024-02-26T10:09:09;100120.97;;;6.00;44.52
70217;BME280;65567;55.684;37.570;2024-02-26T10:11:35;100112.31;;;5.96;43.32
70217;BME280;65567;55.684;37.570;2024-02-26T10:14:03;100132.25;;;5.95;44.54
70217;BME280;65567;55.684;37.570;2024-02-26T10:16:29;100131.66;;;5.79;44.85
70217;BME280;65567;55.684;37.570;2024-02-26T10:18:55;100118.06;;;5.63;44.97
70217;BME280;65567;55.684;37.570;2024-02-26T10:21:21;100118.47;;;5.90;44.63
70217;BME280;65567;55.684;37.570;2024-02-26T10:23:48;100118.09;;;6.14;44.41
70217;BME280;65567;55.684;37.570;2024-02-26T10:26:14;100118.72;;;6.26;45.32
70217;BME280;65567;55.684;37.570;2024-02-26T10:28:45;100115.25;;;6.27;44.61
70217;BME280;65567;55.684;37.570;2024-02-26T10:31:13;100118.66;;;6.31;44.10
70217;BME280;65567;55.684;37.570;2024-02-26T10:33:40;100099.81;;;6.18;44.88
70217;BME280;65567;55.684;37.570;2024-02-26T10:36:07;100094.44;;;6.27;43.53
70217;BME280;65567;55.684;37.570;2024-02-26T10:38:38;100124.16;;;6.61;43.36
70217;BME280;65567;55.684;37.570;2024-02-26T10:41:07;100102.13;;;6.34;43.72
70217;BME280;65567;55.684;37.570;2024-02-26T10:43:38;100108.75;;;6.49;44.62
70217;BME280;65567;55.684;37.570;2024-02-26T10:46:03;100109.25;;;6.68;44.41
70217;BME280;65567;55.684;37.570;2024-02-26T10:48:30;100073.84;;;6.59;43.59
70217;BME280;65567;55.684;37.570;2024-02-26T10:50:56;100107.16;;;6.85;43.27
70217;BME280;65567;55.684;37.570;2024-02-26T10:53:28;100102.78;;;6.45;42.07
70217;BME280;65567;55.684;37.570;2024-02-26T10:55:57;100096.81;;;6.38;42.38
70217;BME280;65567;55.684;37.570;2024-02-26T10:58:25;100091.97;;;6.65;42.59
70217;BME280;65567;55.684;37.570;2024-02-26T11:00:52;100086.78;;;6.64;42.33
70217;BME280;65567;55.684;37.570;2024-02-26T11:03:18;100097.78;;;6.78;42.91
70217;BME280;65567;55.684;37.570;2024-02-26T11:05:49;100080.09;;;6.50;42.29
70217;BME280;65567;55.684;37.570;2024-02-26T11:08:19;100087.69;;;6.17;43.07
70217;BME280;65567;55.684;37.570;2024-02-26T11:10:48;100080.84;;;6.57;42.83
70217;BME280;65567;55.684;37.570;2024-02-26T11:13:15;100077.81;;;5.86;42.99
70217;BME280;65567;55.684;37.570;2024-02-26T11:15:46;100079.81;;;6.22;42.48
70217;BME280;65567;55.684;37.570;2024-02-26T11:18:14;100077.50;;;6.50;42.90
70217;BME280;65567;55.684;37.570;2024-02-26T11:20:41;100062.88;;;5.99;42.47
70217;BME280;65567;55.684;37.570;2024-02-26T11:23:10;100079.44;;;5.93;43.07
70217;BME280;65567;55.684;37.570;2024-02-26T11:25:38;100077.56;;;6.02;42.99
70217;BME280;65567;55.684;37.570;2024-02-26T11:28:11;100074.66;;;5.69;43.11
70217;BME280;65567;55.684;37.570;2024-02-26T11:30:40;100085.69;;;5.83;43.31
70217;BME280;65567;55.684;37.570;2024-02-26T11:33:08;100085.97;;;6.16;42.49
70217;BME280;65567;55.684;37.570;2024-02-26T11:35:38;100067.13;;;6.49;42.33
70217;BME280;65567;55.684;37.570;2024-02-26T11:38:04;100071.56;;;6.45;42.51
70217;BME280;65567;55.684;37.570;2024-02-26T11:40:32;100070.38;;;6.16;42.34
70217;BME280;65567;55.684;37.570;2024-02-26T11:42:58;100059.81;;;6.24;43.16
70217;BME280;65567;55.684;37.570;2024-02-26T11:48:25;100071.06;;;6.26;42.56
70217;BME280;65567;55.684;37.570;2024-02-26T11:50:54;100068.16;;;5.94;42.96
70217;BME280;65567;55.684;37.570;2024-02-26T11:53:32;100061.47;;;6.28;43.52
70217;BME280;65567;55.684;37.570;2024-02-26T12:01:44;100063.47;;;6.15;44.04
70217;BME280;65567;55.684;37.570;2024-02-26T12:06:50;100051.78;;;5.88;44.24
70217;BME280;65567;55.684;37.570;2024-02-26T12:09:41;100055.91;;;6.01;43.55
70217;BME280;65567;55.684;37.570;2024-02-26T12:12:13;100053.47;;;5.90;43.52
70217;BME280;65567;55.684;37.570;2024-02-26T12:14:53;100044.25;;;6.22;43.02
70217;BME280;65567;55.684;37.570;2024-02-26T12:17:23;100048.94;;;6.05;43.96
70217;BME280;65567;55.684;37.570;2024-02-26T12:19:49;100029.25;;;5.88;43.91
70217;BME280;65567;55.684;37.570;2024-02-26T12:22:16;100052.00;;;5.75;43.98
70217;BME280;65567;55.684;37.570;2024-02-26T12:24:42;100052.41;;;6.04;44.10
70217;BME280;65567;55.684;37.570;2024-02-26T12:27:08;100080.44;;;5.85;43.98
70217;BME280;65567;55.684;37.570;2024-02-26T12:29:52;100053.28;;;5.53;44.27
70217;BME280;65567;55.684;37.570;2024-02-26T12:32:21;100063.69;;;5.53;43.83
70217;BME280;65567;55.684;37.570;2024-02-26T12:34:48;100047.31;;;5.46;45.31
70217;BME280;65567;55.684;37.570;2024-02-26T12:37:15;100058.38;;;5.03;44.74
70217;BME280;65567;55.684;37.570;2024-02-26T12:39:41;100061.81;;;5.05;44.51
70217;BME280;65567;55.684;37.570;2024-02-26T12:42:08;100058.25;;;4.46;45.23
70217;BME280;65567;55.684;37.570;2024-02-26T12:44:35;100057.25;;;4.58;45.25
70217;BME280;65567;55.684;37.570;2024-02-26T12:47:04;100035.56;;;4.62;45.29
70217;BME280;65567;55.684;37.570;2024-02-26T12:49:30;100060.78;;;4.51;45.15
70217;BME280;65567;55.684;37.570;2024-02-26T12:51:56;100054.94;;;5.01;45.69
70217;BME280;65567;55.684;37.570;2024-02-26T12:54:27;100052.59;;;4.82;44.38
70217;BME280;65567;55.684;37.570;2024-02-26T12:56:53;100046.63;;;4.77;44.93
70217;BME280;65567;55.684;37.570;2024-02-26T12:59:19;100027.53;;;4.81;44.69
70217;BME280;65567;55.684;37.570;2024-02-26T13:01:45;100047.53;;;4.73;44.13
70217;BME280;65567;55.684;37.570;2024-02-26T13:04:11;100054.91;;;4.37;44.70
70217;BME280;65567;55.684;37.570;2024-02-26T13:06:39;100051.06;;;4.69;44.94